MSC Bari — A8YD3 — position and weather

sailwx.info

Track history (hours):
 
Tides and Currents Weather Stations Pressure Air Temp Water Temp Dewpoint Dewpoint Depression Visibility Wind Speed Wind Dir Waves Ship Positions

MSC Bari

Last reported at 2016-May-04 00:00 UTC. Time now 2016-May-04 19:16 UTC.
Position N 35°06' E 026°48'.

Length 366 m; draft 15.5 m.

Type: Ship (hazmat cat A). MMSI: 636092188.

Wind from 260 at 24 knots

Waves 1.5 meters (5 feet), 12 second period

Barometer 1008.0 mb
Air temperature 17.0 ° C
Visibility: greater than 5.4 NM
Dewpoint 15.4 ° C
Water temperature 19.0 ° C

Date/timePositionNaut miles runAvg speedWind from/ knotsBaromVisibWave heightAir tempDewpointWater temp
2016-May-04 00:00N 35°06' E 026°48'19816.7 260 / 241008.0 5.4 1.517.015.419.0
2016-May-03 12:05N 37°24' E 023°52'917.2
2016-May-03 11:33N 37°33' E 023°47'1717.5
2016-May-03 10:34N 37°48' E 023°37'9 8.9
2016-May-03 09:33N 37°57' E 023°35'0 0.1
2016-May-03 08:32N 37°57' E 023°35'0 0.0
2016-May-03 07:32N 37°57' E 023°35'0 0.0
2016-May-03 06:32N 37°57' E 023°35'0 0.0
2016-May-03 05:32N 37°57' E 023°35'0 0.0
2016-May-03 04:32N 37°57' E 023°35'0 0.0
2016-May-03 03:32N 37°57' E 023°35'0 0.0
2016-May-03 02:32N 37°57' E 023°35'0 0.0
2016-May-03 01:32N 37°57' E 023°35'0 0.0
2016-May-03 00:32N 37°57' E 023°35'0 0.0
2016-May-02 23:32N 37°57' E 023°35'0 0.0
2016-May-02 22:32N 37°57' E 023°35'0 0.0
2016-May-02 21:32N 37°57' E 023°35'0 0.0
2016-May-02 20:32N 37°57' E 023°35'0 0.0
2016-May-02 19:32N 37°57' E 023°35'0 0.0
2016-May-02 18:32N 37°57' E 023°35'0 0.0
2016-May-02 17:32N 37°57' E 023°35'0 0.0
2016-May-02 16:32N 37°57' E 023°35'0 0.0
2016-May-02 15:32N 37°57' E 023°35'0 0.0
2016-May-02 14:32N 37°57' E 023°35'0 0.0
2016-May-02 13:32N 37°57' E 023°35'0 0.0
2016-May-02 12:32N 37°57' E 023°35'0 0.0
2016-May-02 11:32N 37°57' E 023°35'0 0.0
2016-May-02 10:32N 37°57' E 023°35'0 0.0
2016-May-02 09:32N 37°57' E 023°35'0 0.0
2016-May-02 08:32N 37°57' E 023°35'0 0.0
2016-May-02 07:32N 37°57' E 023°35'0 0.0
2016-May-02 06:32N 37°57' E 023°35'0 0.0
2016-May-02 05:32N 37°57' E 023°35'0 0.0
2016-May-02 04:33N 37°57' E 023°35'3 2.9
2016-May-02 03:33N 37°54' E 023°36'9 8.8
2016-May-02 02:33N 37°47' E 023°42'7 6.6
2016-May-02 01:33N 37°42' E 023°47'1 1.3
2016-May-02 00:33N 37°42' E 023°49'1 1.3
2016-May-01 23:33N 37°40' E 023°49'1 0.6
2016-May-01 22:33N 37°40' E 023°48'1 0.6
2016-May-01 21:33N 37°41' E 023°48'0 0.1
2016-May-01 20:33N 37°41' E 023°48'0 0.3
2016-May-01 19:33N 37°40' E 023°48'0 0.2
2016-May-01 18:33N 37°41' E 023°48'1 0.7
2016-May-01 17:33N 37°41' E 023°48'1 0.6
2016-May-01 16:33N 37°42' E 023°49'2 2.4
2016-May-01 15:33N 37°44' E 023°50'2 1.7
2016-May-01 14:33N 37°43' E 023°47'1 0.9
2016-May-01 13:33N 37°44' E 023°46'2 1.9
2016-May-01 12:33N 37°43' E 023°48'8 8.4
2016-May-01 11:33N 37°36' E 023°55'19 9.4
2016-May-01 09:33N 37°43' E 024°17'9 9.5
2016-May-01 08:33N 37°50' E 024°26'4110.2
2016-May-01 04:32N 38°25' E 024°53'189 3.9
2016-Apr-29 03:33N 40°48' E 027°33'4217.8
2016-Apr-29 01:11N 40°43' E 028°28'1218.7
2016-Apr-29 00:33N 40°53' E 028°37'  
2016-Apr-24 02:31N 40°45' E 029°37'1212.0
2016-Apr-24 01:33N 40°43' E 029°22'8 8.2
2016-Apr-24 00:33N 40°45' E 029°11'  
Track history (hours):
 
Tides and Currents Weather Stations Pressure Air Temp Water Temp Dewpoint Dewpoint Depression Visibility Wind Speed Wind Dir Waves Ship Positions

MSC Bari

Last reported at 2016-May-04 00:00 UTC. Time now 2016-May-04 19:16 UTC.
Position N 35°06' E 026°48'.

Length 366 m; draft 15.5 m.

Type: Ship (hazmat cat A). MMSI: 636092188.

Wind from 260 at 24 knots

Waves 1.5 meters (5 feet), 12 second period

Barometer 1008.0 mb
Air temperature 17.0 ° C
Visibility: greater than 5.4 NM
Dewpoint 15.4 ° C
Water temperature 19.0 ° C

Date/timePositionNaut miles runAvg speedWind from/ knotsBaromVisibWave heightAir tempDewpointWater temp
2016-May-04 00:00N 35°06' E 026°48'19816.7 260 / 241008.0 5.4 1.517.015.419.0
2016-May-03 12:05N 37°24' E 023°52'917.2
2016-May-03 11:33N 37°33' E 023°47'1717.5
2016-May-03 10:34N 37°48' E 023°37'9 8.9
2016-May-03 09:33N 37°57' E 023°35'0 0.1
2016-May-03 08:32N 37°57' E 023°35'0 0.0
2016-May-03 07:32N 37°57' E 023°35'0 0.0
2016-May-03 06:32N 37°57' E 023°35'0 0.0
2016-May-03 05:32N 37°57' E 023°35'0 0.0
2016-May-03 04:32N 37°57' E 023°35'0 0.0
2016-May-03 03:32N 37°57' E 023°35'0 0.0
2016-May-03 02:32N 37°57' E 023°35'0 0.0
2016-May-03 01:32N 37°57' E 023°35'0 0.0
2016-May-03 00:32N 37°57' E 023°35'0 0.0
2016-May-02 23:32N 37°57' E 023°35'0 0.0
2016-May-02 22:32N 37°57' E 023°35'0 0.0
2016-May-02 21:32N 37°57' E 023°35'0 0.0
2016-May-02 20:32N 37°57' E 023°35'0 0.0
2016-May-02 19:32N 37°57' E 023°35'0 0.0
2016-May-02 18:32N 37°57' E 023°35'0 0.0
2016-May-02 17:32N 37°57' E 023°35'0 0.0
2016-May-02 16:32N 37°57' E 023°35'0 0.0
2016-May-02 15:32N 37°57' E 023°35'0 0.0
2016-May-02 14:32N 37°57' E 023°35'0 0.0
2016-May-02 13:32N 37°57' E 023°35'0 0.0
2016-May-02 12:32N 37°57' E 023°35'0 0.0
2016-May-02 11:32N 37°57' E 023°35'0 0.0
2016-May-02 10:32N 37°57' E 023°35'0 0.0
2016-May-02 09:32N 37°57' E 023°35'0 0.0
2016-May-02 08:32N 37°57' E 023°35'0 0.0
2016-May-02 07:32N 37°57' E 023°35'0 0.0
2016-May-02 06:32N 37°57' E 023°35'0 0.0
2016-May-02 05:32N 37°57' E 023°35'0 0.0
2016-May-02 04:33N 37°57' E 023°35'3 2.9
2016-May-02 03:33N 37°54' E 023°36'9 8.8
2016-May-02 02:33N 37°47' E 023°42'7 6.6
2016-May-02 01:33N 37°42' E 023°47'1 1.3
2016-May-02 00:33N 37°42' E 023°49'1 1.3
2016-May-01 23:33N 37°40' E 023°49'1 0.6
2016-May-01 22:33N 37°40' E 023°48'1 0.6
2016-May-01 21:33N 37°41' E 023°48'0 0.1
2016-May-01 20:33N 37°41' E 023°48'0 0.3
2016-May-01 19:33N 37°40' E 023°48'0 0.2
2016-May-01 18:33N 37°41' E 023°48'1 0.7
2016-May-01 17:33N 37°41' E 023°48'1 0.6
2016-May-01 16:33N 37°42' E 023°49'2 2.4
2016-May-01 15:33N 37°44' E 023°50'2 1.7
2016-May-01 14:33N 37°43' E 023°47'1 0.9
2016-May-01 13:33N 37°44' E 023°46'2 1.9
2016-May-01 12:33N 37°43' E 023°48'8 8.4
2016-May-01 11:33N 37°36' E 023°55'19 9.4
2016-May-01 09:33N 37°43' E 024°17'9 9.5
2016-May-01 08:33N 37°50' E 024°26'4110.2
2016-May-01 04:32N 38°25' E 024°53'189 3.9
2016-Apr-29 03:33N 40°48' E 027°33'4217.8
2016-Apr-29 01:11N 40°43' E 028°28'1218.7
2016-Apr-29 00:33N 40°53' E 028°37'  
2016-Apr-24 02:31N 40°45' E 029°37'1212.0
2016-Apr-24 01:33N 40°43' E 029°22'8 8.2
2016-Apr-24 00:33N 40°45' E 029°11'  

Dump ship's entire track history